sensor_id;sensor_type;location;lat;lon;timestamp;pressure;altitude;pressure_sealevel;temperature
71897;BMP280;59767;51.344;12.362;2023-06-14T00:03:02;162596.47;;;15.29
71897;BMP280;59767;51.344;12.362;2023-06-14T00:06:08;162559.75;;;15.15
71897;BMP280;59767;51.344;12.362;2023-06-14T00:09:12;162559.75;;;15.15
71897;BMP280;59767;51.344;12.362;2023-06-14T00:12:16;162530.91;;;15.04
71897;BMP280;59767;51.344;12.362;2023-06-14T00:15:20;162485.03;;;14.86
71897;BMP280;59767;51.344;12.362;2023-06-14T00:18:24;162451.03;;;14.73
71897;BMP280;59767;51.344;12.362;2023-06-14T00:21:30;162454.91;;;14.75
71897;BMP280;59767;51.344;12.362;2023-06-14T00:24:34;162464.09;;;14.78
71897;BMP280;59767;51.344;12.362;2023-06-14T00:27:38;162420.88;;;14.62
71897;BMP280;59767;51.344;12.362;2023-06-14T00:30:41;162428.69;;;14.65
71897;BMP280;59767;51.344;12.362;2023-06-14T00:33:47;162427.38;;;14.64
71897;BMP280;59767;51.344;12.362;2023-06-14T00:36:51;162414.25;;;14.59
71897;BMP280;59767;51.344;12.362;2023-06-14T00:39:56;162407.72;;;14.57
71897;BMP280;59767;51.344;12.362;2023-06-14T00:43:00;162395.94;;;14.52
71897;BMP280;59767;51.344;12.362;2023-06-14T00:46:04;162376.22;;;14.45
71897;BMP280;59767;51.344;12.362;2023-06-14T00:49:09;162371.06;;;14.43
71897;BMP280;59767;51.344;12.362;2023-06-14T00:52:15;162360.56;;;14.39
71897;BMP280;59767;51.344;12.362;2023-06-14T00:55:23;162321.25;;;14.24
71897;BMP280;59767;51.344;12.362;2023-06-14T00:58:28;162296.38;;;14.14
71897;BMP280;59767;51.344;12.362;2023-06-14T01:01:33;162304.19;;;14.17
71897;BMP280;59767;51.344;12.362;2023-06-14T01:04:39;162304.19;;;14.17
71897;BMP280;59767;51.344;12.362;2023-06-14T01:11:33;162300.25;;;14.16
71897;BMP280;59767;51.344;12.362;2023-06-14T01:14:41;162301.53;;;14.16
71897;BMP280;59767;51.344;12.362;2023-06-14T01:17:45;162300.25;;;14.16
71897;BMP280;59767;51.344;12.362;2023-06-14T01:20:50;162281.94;;;14.09
71897;BMP280;59767;51.344;12.362;2023-06-14T01:23:54;162268.78;;;14.04
71897;BMP280;59767;51.344;12.362;2023-06-14T01:26:59;162271.44;;;14.05
71897;BMP280;59767;51.344;12.362;2023-06-14T01:30:05;162257.00;;;13.99
71897;BMP280;59767;51.344;12.362;2023-06-14T01:33:10;162258.34;;;14.00
71897;BMP280;59767;51.344;12.362;2023-06-14T01:36:18;162242.63;;;13.94
71897;BMP280;59767;51.344;12.362;2023-06-14T01:39:23;162253.06;;;13.98
71897;BMP280;59767;51.344;12.362;2023-06-14T01:42:28;162268.78;;;14.04
71897;BMP280;59767;51.344;12.362;2023-06-14T01:45:33;162287.16;;;14.11
71897;BMP280;59767;51.344;12.362;2023-06-14T01:48:37;162292.41;;;14.13
71897;BMP280;59767;51.344;12.362;2023-06-14T01:51:41;162287.16;;;14.11
71897;BMP280;59767;51.344;12.362;2023-06-14T01:54:45;162284.53;;;14.10
71897;BMP280;59767;51.344;12.362;2023-06-14T01:57:50;162239.97;;;13.93
71897;BMP280;59767;51.344;12.362;2023-06-14T02:00:54;162219.03;;;13.85
71897;BMP280;59767;51.344;12.362;2023-06-14T02:04:02;162228.19;;;13.88
71897;BMP280;59767;51.344;12.362;2023-06-14T02:07:06;162241.28;;;13.93
71897;BMP280;59767;51.344;12.362;2023-06-14T02:10:10;162237.34;;;13.92
71897;BMP280;59767;51.344;12.362;2023-06-14T02:13:14;162229.53;;;13.89
71897;BMP280;59767;51.344;12.362;2023-06-14T02:16:18;162204.66;;;13.79
71897;BMP280;59767;51.344;12.362;2023-06-14T02:19:23;162209.88;;;13.81
71897;BMP280;59767;51.344;12.362;2023-06-14T02:22:26;162207.19;;;13.80
71897;BMP280;59767;51.344;12.362;2023-06-14T02:25:31;162202.00;;;13.78
71897;BMP280;59767;51.344;12.362;2023-06-14T02:28:35;162194.09;;;13.75
71897;BMP280;59767;51.344;12.362;2023-06-14T02:31:40;162188.94;;;13.73
71897;BMP280;59767;51.344;12.362;2023-06-14T02:34:44;162199.38;;;13.77
71897;BMP280;59767;51.344;12.362;2023-06-14T02:37:53;162182.34;;;13.71
71897;BMP280;59767;51.344;12.362;2023-06-14T02:40:58;162169.25;;;13.66
71897;BMP280;59767;51.344;12.362;2023-06-14T02:44:03;162145.66;;;13.57
71897;BMP280;59767;51.344;12.362;2023-06-14T02:47:07;162157.41;;;13.61
71897;BMP280;59767;51.344;12.362;2023-06-14T02:50:11;162166.63;;;13.65
71897;BMP280;59767;51.344;12.362;2023-06-14T02:53:16;162143.03;;;13.56
71897;BMP280;59767;51.344;12.362;2023-06-14T02:56:21;162150.91;;;13.59
71897;BMP280;59767;51.344;12.362;2023-06-14T02:59:26;162124.66;;;13.49
71897;BMP280;59767;51.344;12.362;2023-06-14T03:02:30;162124.66;;;13.49
71897;BMP280;59767;51.344;12.362;2023-06-14T03:05:34;162124.66;;;13.49
71897;BMP280;59767;51.344;12.362;2023-06-14T03:08:38;162141.72;;;13.55
71897;BMP280;59767;51.344;12.362;2023-06-14T03:11:42;162150.91;;;13.59
71897;BMP280;59767;51.344;12.362;2023-06-14T03:14:46;162120.78;;;13.47
71897;BMP280;59767;51.344;12.362;2023-06-14T03:17:51;162102.41;;;13.40
71897;BMP280;59767;51.344;12.362;2023-06-14T03:20:58;162089.38;;;13.35
71897;BMP280;59767;51.344;12.362;2023-06-14T03:24:02;162074.94;;;13.30
71897;BMP280;59767;51.344;12.362;2023-06-14T03:27:07;162027.72;;;13.12
71897;BMP280;59767;51.344;12.362;2023-06-14T03:30:14;162029.06;;;13.12
71897;BMP280;59767;51.344;12.362;2023-06-14T03:33:19;162029.06;;;13.12
71897;BMP280;59767;51.344;12.362;2023-06-14T03:36:23;162025.13;;;13.11
71897;BMP280;59767;51.344;12.362;2023-06-14T03:39:26;162033.00;;;13.14
71897;BMP280;59767;51.344;12.362;2023-06-14T03:42:31;162034.31;;;13.14
71897;BMP280;59767;51.344;12.362;2023-06-14T03:45:35;162057.84;;;13.23
71897;BMP280;59767;51.344;12.362;2023-06-14T03:48:38;162082.78;;;13.33
71897;BMP280;59767;51.344;12.362;2023-06-14T03:51:43;162040.88;;;13.17
71897;BMP280;59767;51.344;12.362;2023-06-14T03:54:47;162071.00;;;13.28
71897;BMP280;59767;51.344;12.362;2023-06-14T03:57:54;162033.00;;;13.14
71897;BMP280;59767;51.344;12.362;2023-06-14T04:00:58;162055.28;;;13.22
71897;BMP280;59767;51.344;12.362;2023-06-14T04:04:03;162056.56;;;13.23
71897;BMP280;59767;51.344;12.362;2023-06-14T04:07:07;162065.75;;;13.26
71897;BMP280;59767;51.344;12.362;2023-06-14T04:10:12;162056.56;;;13.23
71897;BMP280;59767;51.344;12.362;2023-06-14T04:13:17;162036.94;;;13.15
71897;BMP280;59767;51.344;12.362;2023-06-14T04:16:22;162033.00;;;13.14
71897;BMP280;59767;51.344;12.362;2023-06-14T04:19:26;162029.06;;;13.12
71897;BMP280;59767;51.344;12.362;2023-06-14T04:22:30;162046.09;;;13.19
71897;BMP280;59767;51.344;12.362;2023-06-14T04:25:34;162006.81;;;13.04
71897;BMP280;59767;51.344;12.362;2023-06-14T04:28:38;162022.56;;;13.10
71897;BMP280;59767;51.344;12.362;2023-06-14T04:31:45;161998.94;;;13.01
71897;BMP280;59767;51.344;12.362;2023-06-14T04:34:50;161985.84;;;12.96
71897;BMP280;59767;51.344;12.362;2023-06-14T04:37:58;161974.06;;;12.91
71897;BMP280;59767;51.344;12.362;2023-06-14T04:41:03;162004.19;;;13.03
71897;BMP280;59767;51.344;12.362;2023-06-14T04:44:06;162019.91;;;13.09
71897;BMP280;59767;51.344;12.362;2023-06-14T04:47:11;162038.25;;;13.16
71897;BMP280;59767;51.344;12.362;2023-06-14T04:50:20;162082.78;;;13.33
71897;BMP280;59767;51.344;12.362;2023-06-14T04:53:24;162081.44;;;13.32
71897;BMP280;59767;51.344;12.362;2023-06-14T04:56:28;162091.94;;;13.36
71897;BMP280;59767;51.344;12.362;2023-06-14T04:59:33;162114.22;;;13.45
71897;BMP280;59767;51.344;12.362;2023-06-14T05:02:39;162136.50;;;13.53
71897;BMP280;59767;51.344;12.362;2023-06-14T05:05:45;162178.41;;;13.69
71897;BMP280;59767;51.344;12.362;2023-06-14T05:08:49;162208.53;;;13.81
71897;BMP280;59767;51.344;12.362;2023-06-14T05:11:54;162224.25;;;13.87
71897;BMP280;59767;51.344;12.362;2023-06-14T05:15:00;162268.78;;;14.04
71897;BMP280;59767;51.344;12.362;2023-06-14T05:18:03;162287.16;;;14.11
71897;BMP280;59767;51.344;12.362;2023-06-14T05:21:08;162318.56;;;14.23
71897;BMP280;59767;51.344;12.362;2023-06-14T05:24:13;162369.72;;;14.42
71897;BMP280;59767;51.344;12.362;2023-06-14T05:27:17;162368.38;;;14.42
71897;BMP280;59767;51.344;12.362;2023-06-14T05:30:21;162392.03;;;14.51
71897;BMP280;59767;51.344;12.362;2023-06-14T05:33:25;162427.38;;;14.64
71897;BMP280;59767;51.344;12.362;2023-06-14T05:36:30;162440.47;;;14.69
71897;BMP280;59767;51.344;12.362;2023-06-14T05:39:34;162443.09;;;14.70
71897;BMP280;59767;51.344;12.362;2023-06-14T05:42:38;162440.47;;;14.69
71897;BMP280;59767;51.344;12.362;2023-06-14T05:45:42;162488.97;;;14.88
71897;BMP280;59767;51.344;12.362;2023-06-14T05:48:46;162519.13;;;14.99
71897;BMP280;59767;51.344;12.362;2023-06-14T05:51:50;162496.81;;;14.91
71897;BMP280;59767;51.344;12.362;2023-06-14T05:54:54;162496.81;;;14.91
71897;BMP280;59767;51.344;12.362;2023-06-14T05:57:58;162511.28;;;14.96
71897;BMP280;59767;51.344;12.362;2023-06-14T06:01:10;162555.81;;;15.13
71897;BMP280;59767;51.344;12.362;2023-06-14T06:04:23;162588.59;;;15.26
71897;BMP280;59767;51.344;12.362;2023-06-14T06:07:27;162609.59;;;15.34
71897;BMP280;59767;51.344;12.362;2023-06-14T06:10:31;162641.09;;;15.46
71897;BMP280;59767;51.344;12.362;2023-06-14T06:13:35;162659.38;;;15.53
71897;BMP280;59767;51.344;12.362;2023-06-14T06:16:39;162668.59;;;15.56
71897;BMP280;59767;51.344;12.362;2023-06-14T06:19:44;162676.44;;;15.59
71897;BMP280;59767;51.344;12.362;2023-06-14T06:22:48;162677.78;;;15.60
71897;BMP280;59767;51.344;12.362;2023-06-14T06:25:52;162714.47;;;15.74
71897;BMP280;59767;51.344;12.362;2023-06-14T06:28:56;162785.28;;;16.01
71897;BMP280;59767;51.344;12.362;2023-06-14T06:32:01;162886.31;;;16.39
71897;BMP280;59767;51.344;12.362;2023-06-14T06:35:05;162966.34;;;16.70
71897;BMP280;59767;51.344;12.362;2023-06-14T06:38:10;162983.34;;;16.76
71897;BMP280;59767;51.344;12.362;2023-06-14T06:41:14;162988.59;;;16.78
71897;BMP280;59767;51.344;12.362;2023-06-14T06:44:18;163027.97;;;16.93
71897;BMP280;59767;51.344;12.362;2023-06-14T06:47:22;163077.81;;;17.12
71897;BMP280;59767;51.344;12.362;2023-06-14T06:50:26;163080.44;;;17.13
71897;BMP280;59767;51.344;12.362;2023-06-14T06:53:30;163147.38;;;17.39
71897;BMP280;59767;51.344;12.362;2023-06-14T06:56:46;163161.84;;;17.44
71897;BMP280;59767;51.344;12.362;2023-06-14T06:59:50;163211.69;;;17.63
71897;BMP280;59767;51.344;12.362;2023-06-14T07:02:54;163243.13;;;17.75
71897;BMP280;59767;51.344;12.362;2023-06-14T07:05:59;163251.03;;;17.78
71897;BMP280;59767;51.344;12.362;2023-06-14T07:09:03;163277.25;;;17.88
71897;BMP280;59767;51.344;12.362;2023-06-14T07:12:11;163312.72;;;18.02
71897;BMP280;59767;51.344;12.362;2023-06-14T07:15:16;163327.13;;;18.07
71897;BMP280;59767;51.344;12.362;2023-06-14T07:18:21;163375.69;;;18.26
71897;BMP280;59767;51.344;12.362;2023-06-14T07:21:25;163433.44;;;18.48
71897;BMP280;59767;51.344;12.362;2023-06-14T07:24:29;163501.75;;;18.74
71897;BMP280;59767;51.344;12.362;2023-06-14T07:27:34;163732.84;;;19.61
71897;BMP280;59767;51.344;12.362;2023-06-14T07:30:38;164172.94;;;21.29
71897;BMP280;59767;51.344;12.362;2023-06-14T07:33:42;164395.03;;;22.13
71897;BMP280;59767;51.344;12.362;2023-06-14T07:36:46;164530.44;;;22.64
71897;BMP280;59767;51.344;12.362;2023-06-14T07:39:51;164543.63;;;22.69
71897;BMP280;59767;51.344;12.362;2023-06-14T07:42:54;164267.56;;;21.65
71897;BMP280;59767;51.344;12.362;2023-06-14T07:45:59;164186.13;;;21.34
71897;BMP280;59767;51.344;12.362;2023-06-14T07:49:11;164249.09;;;21.58
71897;BMP280;59767;51.344;12.362;2023-06-14T07:52:15;164477.84;;;22.45
71897;BMP280;59767;51.344;12.362;2023-06-14T07:55:19;164857.88;;;23.89
71897;BMP280;59767;51.344;12.362;2023-06-14T07:58:24;165343.38;;;25.73
71897;BMP280;59767;51.344;12.362;2023-06-14T08:01:28;165542.13;;;26.48
71897;BMP280;59767;51.344;12.362;2023-06-14T08:04:32;165642.19;;;26.86
71897;BMP280;59767;51.344;12.362;2023-06-14T08:07:37;165822.53;;;27.54
71897;BMP280;59767;51.344;12.362;2023-06-14T08:10:42;165860.75;;;27.69
71897;BMP280;59767;51.344;12.362;2023-06-14T08:13:46;165805.44;;;27.48
71897;BMP280;59767;51.344;12.362;2023-06-14T08:16:50;165595.94;;;28.04
71897;BMP280;59767;51.344;12.362;2023-06-14T08:19:54;165897.59;;;27.83
71897;BMP280;59767;51.344;12.362;2023-06-14T08:23:02;165789.66;;;27.42
71897;BMP280;59767;51.344;12.362;2023-06-14T08:26:09;165578.94;;;26.62
71897;BMP280;59767;51.344;12.362;2023-06-14T08:29:13;165536.88;;;26.46
71897;BMP280;59767;51.344;12.362;2023-06-14T08:32:17;165675.09;;;26.98
71897;BMP280;59767;51.344;12.362;2023-06-14T08:35:22;165659.31;;;26.92
71897;BMP280;59767;51.344;12.362;2023-06-14T08:38:27;165734.31;;;27.21
71897;BMP280;59767;51.344;12.362;2023-06-14T08:41:31;165842.28;;;27.62
71897;BMP280;59767;51.344;12.362;2023-06-14T08:44:35;165784.34;;;27.40
71897;BMP280;59767;51.344;12.362;2023-06-14T08:47:40;165866.53;;;27.99
71897;BMP280;59767;51.344;12.362;2023-06-14T08:50:46;165908.19;;;27.87
71897;BMP280;59767;51.344;12.362;2023-06-14T08:53:55;165170.72;;;28.12
71897;BMP280;59767;51.344;12.362;2023-06-14T08:57:05;165655.34;;;26.91
71897;BMP280;59767;51.344;12.362;2023-06-14T09:00:12;165477.63;;;26.24
71897;BMP280;59767;51.344;12.362;2023-06-14T09:03:18;165521.03;;;26.40
71897;BMP280;59767;51.344;12.362;2023-06-14T09:06:24;165186.75;;;25.13
71897;BMP280;59767;51.344;12.362;2023-06-14T09:09:28;165363.13;;;25.80
71897;BMP280;59767;51.344;12.362;2023-06-14T09:12:32;165265.75;;;25.43
71897;BMP280;59767;51.344;12.362;2023-06-14T09:15:36;165384.16;;;25.88
71897;BMP280;59767;51.344;12.362;2023-06-14T09:18:45;165378.88;;;25.86
71897;BMP280;59767;51.344;12.362;2023-06-14T09:21:52;165339.44;;;25.71
71897;BMP280;59767;51.344;12.362;2023-06-14T09:24:56;165176.22;;;25.09
71897;BMP280;59767;51.344;12.362;2023-06-14T09:28:01;165156.56;;;25.02
71897;BMP280;59767;51.344;12.362;2023-06-14T09:31:04;164926.28;;;24.15
71897;BMP280;59767;51.344;12.362;2023-06-14T09:34:09;164763.19;;;23.53
71897;BMP280;59767;51.344;12.362;2023-06-14T09:37:29;164686.91;;;23.24
71897;BMP280;59767;51.344;12.362;2023-06-14T09:40:34;164648.75;;;23.09
71897;BMP280;59767;51.344;12.362;2023-06-14T09:43:39;164648.75;;;23.09
71897;BMP280;59767;51.344;12.362;2023-06-14T09:46:44;164571.19;;;22.80
71897;BMP280;59767;51.344;12.362;2023-06-14T09:49:49;164538.31;;;22.67
71897;BMP280;59767;51.344;12.362;2023-06-14T09:52:58;164600.13;;;22.91
71897;BMP280;59767;51.344;12.362;2023-06-14T09:56:05;164634.34;;;23.04
71897;BMP280;59767;51.344;12.362;2023-06-14T09:59:10;164672.50;;;23.18
71897;BMP280;59767;51.344;12.362;2023-06-14T10:02:25;164562.00;;;22.76
71897;BMP280;59767;51.344;12.362;2023-06-14T10:05:30;164450.22;;;22.34
71897;BMP280;59767;51.344;12.362;2023-06-14T10:08:36;164535.75;;;22.67
71897;BMP280;59767;51.344;12.362;2023-06-14T10:11:40;164583.03;;;22.84
71897;BMP280;59767;51.344;12.362;2023-06-14T10:14:49;164608.00;;;22.94
71897;BMP280;59767;51.344;12.362;2023-06-14T10:17:59;164525.19;;;22.63
71897;BMP280;59767;51.344;12.362;2023-06-14T10:24:50;164568.56;;;22.79
71897;BMP280;59767;51.344;12.362;2023-06-14T10:28:19;164516.00;;;22.59
71897;BMP280;59767;51.344;12.362;2023-06-14T10:31:59;164585.72;;;22.85
71897;BMP280;59767;51.344;12.362;2023-06-14T10:35:06;164625.09;;;23.00
71897;BMP280;59767;51.344;12.362;2023-06-14T10:38:14;164630.38;;;23.02
71897;BMP280;59767;51.344;12.362;2023-06-14T10:41:18;164633.00;;;23.03
71897;BMP280;59767;51.344;12.362;2023-06-14T10:47:34;164356.97;;;21.99
71897;BMP280;59767;51.344;12.362;2023-06-14T10:50:43;164387.16;;;22.10
71897;BMP280;59767;51.344;12.362;2023-06-14T10:53:49;164376.66;;;22.06
71897;BMP280;59767;51.344;12.362;2023-06-14T10:56:53;164305.69;;;21.79
71897;BMP280;59767;51.344;12.362;2023-06-14T11:00:03;164329.34;;;21.88
71897;BMP280;59767;51.344;12.362;2023-06-14T11:06:45;164308.31;;;21.80
71897;BMP280;59767;51.344;12.362;2023-06-14T11:10:03;164350.38;;;21.96
71897;BMP280;59767;51.344;12.362;2023-06-14T11:13:09;164392.41;;;22.12
71897;BMP280;59767;51.344;12.362;2023-06-14T11:16:14;164367.47;;;22.03
71897;BMP280;59767;51.344;12.362;2023-06-14T11:19:19;164363.50;;;22.01
71897;BMP280;59767;51.344;12.362;2023-06-14T11:22:23;164287.28;;;21.72
71897;BMP280;59767;51.344;12.362;2023-06-14T11:25:27;164334.59;;;21.90
71897;BMP280;59767;51.344;12.362;2023-06-14T11:28:38;164381.91;;;22.08
71897;BMP280;59767;51.344;12.362;2023-06-14T11:31:44;164442.34;;;22.31
71897;BMP280;59767;51.344;12.362;2023-06-14T11:34:51;164452.84;;;22.35
71897;BMP280;59767;51.344;12.362;2023-06-14T11:37:56;164513.34;;;22.58
71897;BMP280;59767;51.344;12.362;2023-06-14T11:41:04;164537.03;;;22.67
71897;BMP280;59767;51.344;12.362;2023-06-14T11:44:08;164494.94;;;22.51
71897;BMP280;59767;51.344;12.362;2023-06-14T11:47:12;164473.91;;;22.43
71897;BMP280;59767;51.344;12.362;2023-06-14T11:50:17;164481.81;;;22.46
71897;BMP280;59767;51.344;12.362;2023-06-14T11:53:21;164479.19;;;22.45
71897;BMP280;59767;51.344;12.362;2023-06-14T11:56:25;164476.56;;;22.44
71897;BMP280;59767;51.344;12.362;2023-06-14T11:59:30;164448.94;;;22.34
71897;BMP280;59767;51.344;12.362;2023-06-14T12:02:35;164508.09;;;22.56
71897;BMP280;59767;51.344;12.362;2023-06-14T12:05:39;164530.44;;;22.64
71897;BMP280;59767;51.344;12.362;2023-06-14T12:08:44;164558.03;;;22.75
71897;BMP280;59767;51.344;12.362;2023-06-14T12:11:49;164579.06;;;22.83
71897;BMP280;59767;51.344;12.362;2023-06-14T12:14:55;164477.84;;;22.45
71897;BMP280;59767;51.344;12.362;2023-06-14T12:17:59;164430.53;;;22.27
71897;BMP280;59767;51.344;12.362;2023-06-14T12:21:05;164434.47;;;22.28
71897;BMP280;59767;51.344;12.362;2023-06-14T12:24:11;164466.03;;;22.40
71897;BMP280;59767;51.344;12.362;2023-06-14T12:27:17;164485.78;;;22.48
71897;BMP280;59767;51.344;12.362;2023-06-14T12:30:22;164525.19;;;22.63
71897;BMP280;59767;51.344;12.362;2023-06-14T12:33:27;164444.97;;;22.32
71897;BMP280;59767;51.344;12.362;2023-06-14T12:36:31;164421.31;;;22.23
71897;BMP280;59767;51.344;12.362;2023-06-14T12:39:36;164371.38;;;22.04
71897;BMP280;59767;51.344;12.362;2023-06-14T12:42:44;164335.94;;;21.91
71897;BMP280;59767;51.344;12.362;2023-06-14T12:45:50;164337.22;;;21.91
71897;BMP280;59767;51.344;12.362;2023-06-14T12:48:55;164329.34;;;21.88
71897;BMP280;59767;51.344;12.362;2023-06-14T12:51:59;164314.88;;;21.83
71897;BMP280;59767;51.344;12.362;2023-06-14T12:55:06;164305.69;;;21.79
71897;BMP280;59767;51.344;12.362;2023-06-14T12:58:10;164279.41;;;21.69
71897;BMP280;59767;51.344;12.362;2023-06-14T13:01:16;164287.28;;;21.72
71897;BMP280;59767;51.344;12.362;2023-06-14T13:04:20;164308.31;;;21.80
71897;BMP280;59767;51.344;12.362;2023-06-14T13:07:24;164313.56;;;21.82
71897;BMP280;59767;51.344;12.362;2023-06-14T13:10:28;164338.53;;;21.92
71897;BMP280;59767;51.344;12.362;2023-06-14T13:13:32;164331.91;;;21.89
71897;BMP280;59767;51.344;12.362;2023-06-14T13:16:39;164324.03;;;21.86
71897;BMP280;59767;51.344;12.362;2023-06-14T13:19:43;164308.31;;;21.80
71897;BMP280;59767;51.344;12.362;2023-06-14T13:22:47;164345.06;;;21.94
71897;BMP280;59767;51.344;12.362;2023-06-14T13:25:52;164366.13;;;22.02
71897;BMP280;59767;51.344;12.362;2023-06-14T13:28:56;164372.69;;;22.05
71897;BMP280;59767;51.344;12.362;2023-06-14T13:32:01;164427.91;;;22.26
71897;BMP280;59767;51.344;12.362;2023-06-14T13:35:05;164346.41;;;21.95
71897;BMP280;59767;51.344;12.362;2023-06-14T13:38:09;164341.13;;;21.93
71897;BMP280;59767;51.344;12.362;2023-06-14T13:41:15;164374.00;;;22.05
71897;BMP280;59767;51.344;12.362;2023-06-14T13:44:19;164318.84;;;21.84
71897;BMP280;59767;51.344;12.362;2023-06-14T13:47:25;164397.69;;;22.14
71897;BMP280;59767;51.344;12.362;2023-06-14T13:50:29;164462.06;;;22.39
71897;BMP280;59767;51.344;12.362;2023-06-14T13:53:33;164484.44;;;22.47
71897;BMP280;59767;51.344;12.362;2023-06-14T13:56:37;164447.66;;;22.33
71897;BMP280;59767;51.344;12.362;2023-06-14T13:59:41;164460.78;;;22.38
71897;BMP280;59767;51.344;12.362;2023-06-14T14:02:47;164418.75;;;22.22
71897;BMP280;59767;51.344;12.362;2023-06-14T14:05:54;164396.38;;;22.14
71897;BMP280;59767;51.344;12.362;2023-06-14T14:09:00;164421.31;;;22.23
71897;BMP280;59767;51.344;12.362;2023-06-14T14:12:05;164458.16;;;22.37
71897;BMP280;59767;51.344;12.362;2023-06-14T14:15:09;164355.63;;;21.98
71897;BMP280;59767;51.344;12.362;2023-06-14T14:18:16;164351.66;;;21.97
71897;BMP280;59767;51.344;12.362;2023-06-14T14:21:21;164358.25;;;21.99
71897;BMP280;59767;51.344;12.362;2023-06-14T14:24:25;164329.34;;;21.88
71897;BMP280;59767;51.344;12.362;2023-06-14T14:27:30;164330.63;;;21.89
71897;BMP280;59767;51.344;12.362;2023-06-14T14:30:33;164397.69;;;22.14
71897;BMP280;59767;51.344;12.362;2023-06-14T14:33:38;164439.78;;;22.30
71897;BMP280;59767;51.344;12.362;2023-06-14T14:36:42;164401.63;;;22.16
71897;BMP280;59767;51.344;12.362;2023-06-14T14:39:46;164422.66;;;22.24
71897;BMP280;59767;51.344;12.362;2023-06-14T14:42:50;164483.09;;;22.47
71897;BMP280;59767;51.344;12.362;2023-06-14T14:45:54;164551.50;;;22.72
71897;BMP280;59767;51.344;12.362;2023-06-14T14:48:59;164548.81;;;22.71
71897;BMP280;59767;51.344;12.362;2023-06-14T14:52:04;164563.34;;;22.77
71897;BMP280;59767;51.344;12.362;2023-06-14T14:55:25;164521.22;;;22.61
71897;BMP280;59767;51.344;12.362;2023-06-14T14:58:29;164497.63;;;22.52
71897;BMP280;59767;51.344;12.362;2023-06-14T15:01:33;164494.94;;;22.51
71897;BMP280;59767;51.344;12.362;2023-06-14T15:04:38;164452.84;;;22.35
71897;BMP280;59767;51.344;12.362;2023-06-14T15:07:42;164429.25;;;22.26
71897;BMP280;59767;51.344;12.362;2023-06-14T15:10:48;164384.53;;;22.09
71897;BMP280;59767;51.344;12.362;2023-06-14T15:13:52;164328.00;;;21.88
71897;BMP280;59767;51.344;12.362;2023-06-14T15:16:56;164321.41;;;21.85
71897;BMP280;59767;51.344;12.362;2023-06-14T15:20:02;164324.03;;;21.86
71897;BMP280;59767;51.344;12.362;2023-06-14T15:23:06;164324.03;;;21.86
71897;BMP280;59767;51.344;12.362;2023-06-14T15:26:11;164328.00;;;21.88
71897;BMP280;59767;51.344;12.362;2023-06-14T15:29:15;164366.13;;;22.02
71897;BMP280;59767;51.344;12.362;2023-06-14T15:32:19;164401.63;;;22.16
71897;BMP280;59767;51.344;12.362;2023-06-14T15:35:23;164396.38;;;22.14
71897;BMP280;59767;51.344;12.362;2023-06-14T15:38:27;164385.88;;;22.10
71897;BMP280;59767;51.344;12.362;2023-06-14T15:41:32;164418.75;;;22.22
71897;BMP280;59767;51.344;12.362;2023-06-14T15:44:36;164418.75;;;22.22
71897;BMP280;59767;51.344;12.362;2023-06-14T15:47:40;164422.66;;;22.24
71897;BMP280;59767;51.344;12.362;2023-06-14T15:50:44;164416.06;;;22.21
71897;BMP280;59767;51.344;12.362;2023-06-14T15:53:50;164352.94;;;21.97
71897;BMP280;59767;51.344;12.362;2023-06-14T15:56:54;164381.91;;;22.08
71897;BMP280;59767;51.344;12.362;2023-06-14T15:59:58;164352.94;;;21.97
71897;BMP280;59767;51.344;12.362;2023-06-14T16:03:02;164339.88;;;21.92
71897;BMP280;59767;51.344;12.362;2023-06-14T16:06:06;164347.75;;;21.95
71897;BMP280;59767;51.344;12.362;2023-06-14T16:09:11;164297.81;;;21.76
71897;BMP280;59767;51.344;12.362;2023-06-14T16:12:15;164287.28;;;21.72
71897;BMP280;59767;51.344;12.362;2023-06-14T16:15:19;164233.38;;;21.52
71897;BMP280;59767;51.344;12.362;2023-06-14T16:18:23;164174.25;;;21.29
71897;BMP280;59767;51.344;12.362;2023-06-14T16:21:27;164150.59;;;21.20
71897;BMP280;59767;51.344;12.362;2023-06-14T16:24:31;164134.84;;;21.14
71897;BMP280;59767;51.344;12.362;2023-06-14T16:27:36;164126.94;;;21.11
71897;BMP280;59767;51.344;12.362;2023-06-14T16:30:43;164147.97;;;21.19
71897;BMP280;59767;51.344;12.362;2023-06-14T16:33:46;164157.13;;;21.23
71897;BMP280;59767;51.344;12.362;2023-06-14T16:36:50;164155.84;;;21.22
71897;BMP280;59767;51.344;12.362;2023-06-14T16:39:55;164157.13;;;21.23
71897;BMP280;59767;51.344;12.362;2023-06-14T16:42:59;164126.94;;;21.11
71897;BMP280;59767;51.344;12.362;2023-06-14T16:46:03;164124.31;;;21.10
71897;BMP280;59767;51.344;12.362;2023-06-14T16:49:07;164115.13;;;21.07
71897;BMP280;59767;51.344;12.362;2023-06-14T16:52:11;164134.84;;;21.14
71897;BMP280;59767;51.344;12.362;2023-06-14T16:55:15;164176.88;;;21.30
71897;BMP280;59767;51.344;12.362;2023-06-14T16:58:20;164195.28;;;21.37
71897;BMP280;59767;51.344;12.362;2023-06-14T17:01:25;164196.59;;;21.38
71897;BMP280;59767;51.344;12.362;2023-06-14T17:04:30;164174.25;;;21.29
71897;BMP280;59767;51.344;12.362;2023-06-14T17:07:34;164184.78;;;21.33
71897;BMP280;59767;51.344;12.362;2023-06-14T17:10:38;164207.09;;;21.42
71897;BMP280;59767;51.344;12.362;2023-06-14T17:13:42;164204.47;;;21.41
71897;BMP280;59767;51.344;12.362;2023-06-14T17:16:46;164200.50;;;21.39
71897;BMP280;59767;51.344;12.362;2023-06-14T17:19:50;164207.09;;;21.42
71897;BMP280;59767;51.344;12.362;2023-06-14T17:22:56;164222.88;;;21.48
71897;BMP280;59767;51.344;12.362;2023-06-14T17:26:01;164253.06;;;21.59
71897;BMP280;59767;51.344;12.362;2023-06-14T17:29:05;164222.88;;;21.48
71897;BMP280;59767;51.344;12.362;2023-06-14T17:32:09;164234.72;;;21.52